createdAt,value
2017-11-01T09:53:01.284Z,8.47
2017-11-01T09:55:28.815Z,9.17
2017-11-01T11:16:37.329Z,7.30
2017-11-01T11:19:06.513Z,8.13
2017-11-01T11:21:35.069Z,7.50
2017-11-01T11:24:02.757Z,7.20
2017-11-01T11:26:30.368Z,7.10
2017-11-01T11:28:57.996Z,7.87
2017-11-01T11:31:25.545Z,6.03
2017-11-01T11:33:53.054Z,5.90
2017-11-01T11:36:21.333Z,6.37
2017-11-01T11:38:49.676Z,7.33
2017-11-01T11:41:17.246Z,6.27
2017-11-01T11:43:44.975Z,6.50
2017-11-01T11:46:12.606Z,6.47
2017-11-01T11:48:40.149Z,6.40
2017-11-01T11:51:08.490Z,8.50
2017-11-01T11:53:36.055Z,6.77
2017-11-01T11:56:03.640Z,7.07
2017-11-01T11:58:31.274Z,7.40
2017-11-01T12:00:58.845Z,7.27
2017-11-01T12:03:26.496Z,6.37
2017-11-01T12:05:54.112Z,7.37
2017-11-01T12:08:21.879Z,6.47
2017-11-01T12:10:49.878Z,7.77
2017-11-01T12:13:17.551Z,6.70
2017-11-01T12:15:45.480Z,7.73
2017-11-01T12:18:13.138Z,7.87
2017-11-01T12:20:40.922Z,7.20
2017-11-01T12:23:08.906Z,6.63
2017-11-01T12:25:36.584Z,7.90
2017-11-01T12:28:04.142Z,7.40
2017-11-01T12:30:32.397Z,6.90
2017-11-01T12:32:59.936Z,6.37
2017-11-01T12:35:27.464Z,7.23
2017-11-01T12:37:55.796Z,7.07
2017-11-01T12:40:24.057Z,6.60
2017-11-01T12:42:51.594Z,6.93
2017-11-01T12:45:19.109Z,6.87
2017-11-01T12:47:46.637Z,6.10
2017-11-01T12:50:14.664Z,7.30
2017-11-01T12:52:43.002Z,6.83
2017-11-01T12:55:10.500Z,6.43
2017-11-01T12:57:38.025Z,6.70
2017-11-01T13:00:05.594Z,6.13
2017-11-01T13:02:33.120Z,6.43
2017-11-01T13:05:00.880Z,6.67
2017-11-01T13:07:29.374Z,5.53
2017-11-01T13:09:56.995Z,6.20
2017-11-01T13:12:25.681Z,5.87
2017-11-01T13:14:53.249Z,6.33
2017-11-01T13:17:20.755Z,6.27
2017-11-01T13:19:48.287Z,6.37
2017-11-01T13:22:16.151Z,6.87
2017-11-01T13:24:43.736Z,6.10
2017-11-01T13:27:11.272Z,6.30
2017-11-01T13:29:39.041Z,5.93
2017-11-01T13:32:06.876Z,6.40
2017-11-01T13:34:35.387Z,5.40
2017-11-01T13:37:02.979Z,7.30
2017-11-01T13:39:30.580Z,6.40
2017-11-01T13:41:59.699Z,5.83
2017-11-01T13:44:27.443Z,6.00
2017-11-01T13:46:55.022Z,5.73
2017-11-01T13:49:23.714Z,6.70
2017-11-01T13:51:51.696Z,5.70
2017-11-01T13:54:19.394Z,6.50
2017-11-01T13:56:47.016Z,6.50
2017-11-01T13:59:14.585Z,6.07
2017-11-01T14:01:42.435Z,6.67
2017-11-01T14:04:10.402Z,6.27
2017-11-01T14:06:37.992Z,5.20
2017-11-01T14:09:05.545Z,6.20
2017-11-01T14:11:33.129Z,5.20
2017-11-01T14:14:00.850Z,6.33
2017-11-01T14:16:28.455Z,5.27
2017-11-01T14:18:55.970Z,7.17
2017-11-01T14:21:24.175Z,5.60
2017-11-01T14:23:51.781Z,5.40
2017-11-01T14:26:19.302Z,5.67
2017-11-01T14:28:47.048Z,6.17
2017-11-01T14:31:15.031Z,5.27
2017-11-01T14:33:42.930Z,5.10
2017-11-01T14:36:10.545Z,5.20
2017-11-01T14:38:38.332Z,5.80
2017-11-01T14:41:06.287Z,5.73
2017-11-01T14:43:33.999Z,4.93
2017-11-01T14:46:01.843Z,5.23
2017-11-01T14:48:29.811Z,4.70
2017-11-01T14:50:57.492Z,5.73
2017-11-01T14:53:25.313Z,4.80
2017-11-01T14:55:52.932Z,5.73
2017-11-01T14:58:21.285Z,5.33
2017-11-01T15:00:48.899Z,5.00
2017-11-01T15:03:16.438Z,4.70
2017-11-01T15:05:44.172Z,4.60
2017-11-01T15:08:12.002Z,4.63
2017-11-01T15:10:39.621Z,5.00
2017-11-01T15:13:07.208Z,6.20
2017-11-01T15:15:34.784Z,4.50
2017-11-01T15:18:02.415Z,4.80
2017-11-01T15:20:30.173Z,4.80
2017-11-01T15:22:57.777Z,4.50
2017-11-01T15:25:25.603Z,5.20
2017-11-01T15:27:53.392Z,4.57
2017-11-01T15:30:20.996Z,4.77
2017-11-01T15:32:48.789Z,4.90
2017-11-01T15:35:16.346Z,5.93
2017-11-01T15:37:43.964Z,5.00
2017-11-01T15:40:12.668Z,5.00
2017-11-01T15:42:40.258Z,5.33
2017-11-01T15:45:07.813Z,5.37
2017-11-01T15:47:35.517Z,5.83
2017-11-01T15:50:03.861Z,5.63
2017-11-01T15:52:31.642Z,6.37
2017-11-01T15:54:59.593Z,5.50
2017-11-01T15:57:28.155Z,6.33
2017-11-01T15:59:55.820Z,5.90
2017-11-01T16:02:23.808Z,6.57
2017-11-01T16:04:52.461Z,6.27
2017-11-01T16:07:20.553Z,5.60
2017-11-01T16:09:49.459Z,8.23
2017-11-01T16:12:18.112Z,6.27
2017-11-01T16:14:46.093Z,6.40
2017-11-01T16:17:15.061Z,7.00
2017-11-01T16:19:43.377Z,5.70
2017-11-01T16:22:11.490Z,7.00
2017-11-01T16:24:39.594Z,6.33
2017-11-01T16:27:07.603Z,6.57
2017-11-01T16:29:35.642Z,6.13
2017-11-01T16:32:03.686Z,6.43
2017-11-01T16:34:32.630Z,7.10
2017-11-01T16:37:00.497Z,6.43
2017-11-01T16:39:29.392Z,7.37
2017-11-01T16:41:57.222Z,7.23
2017-11-01T16:44:25.087Z,7.77
2017-11-01T16:46:53.606Z,6.80
2017-11-01T16:49:21.468Z,8.07
2017-11-01T16:51:49.603Z,8.50
2017-11-01T16:54:18.410Z,7.40
2017-11-01T16:56:46.712Z,7.60
2017-11-01T16:59:15.331Z,6.83
2017-11-01T17:01:43.499Z,7.73
2017-11-01T17:04:11.408Z,7.90
2017-11-01T17:06:40.112Z,8.47
2017-11-01T17:09:08.169Z,7.40
2017-11-01T17:11:36.216Z,7.63
2017-11-01T17:14:04.067Z,7.83
2017-11-01T17:16:32.411Z,8.03
2017-11-01T17:19:00.435Z,7.17
2017-11-01T17:21:28.495Z,8.00
2017-11-01T17:23:56.562Z,9.07
2017-11-01T17:26:25.280Z,8.20
2017-11-01T17:28:53.591Z,8.07
2017-11-01T17:31:21.817Z,7.67
2017-11-01T17:33:50.675Z,7.20
2017-11-01T17:36:19.521Z,8.83
2017-11-01T17:38:48.582Z,8.30
2017-11-01T17:41:16.728Z,9.93
2017-11-01T17:43:44.706Z,8.60
2017-11-01T17:46:13.046Z,9.23
2017-11-01T17:48:41.039Z,10.23
2017-11-01T17:51:08.958Z,8.03
2017-11-01T17:53:37.204Z,8.23
2017-11-01T17:56:05.309Z,8.93
2017-11-01T17:58:33.469Z,8.87
2017-11-01T18:01:01.841Z,7.67
2017-11-01T18:03:29.877Z,8.73
2017-11-01T18:05:58.072Z,7.70
2017-11-01T18:08:27.171Z,7.97
2017-11-01T18:10:55.429Z,7.33
2017-11-01T18:13:23.541Z,7.23
2017-11-01T18:15:52.478Z,7.57
2017-11-01T18:18:20.539Z,6.10
2017-11-01T18:20:48.578Z,6.40
2017-11-01T18:23:16.380Z,8.30
2017-11-01T18:25:44.067Z,6.77
2017-11-01T18:28:12.513Z,6.20
2017-11-01T18:30:40.410Z,6.40
2017-11-01T18:33:08.059Z,6.40
2017-11-01T18:35:35.690Z,6.90
2017-11-01T18:38:03.512Z,7.07
2017-11-01T18:40:31.301Z,7.70
2017-11-01T18:42:58.938Z,6.97
2017-11-01T18:45:26.592Z,5.33
2017-11-01T18:47:54.221Z,5.50
2017-11-01T18:50:21.748Z,5.40
2017-11-01T18:52:50.088Z,5.17
2017-11-01T18:55:17.658Z,5.40
2017-11-01T18:57:45.368Z,6.17
2017-11-01T19:00:13.892Z,5.43
2017-11-01T19:02:41.419Z,5.23
2017-11-01T19:05:08.947Z,5.60
2017-11-01T19:07:37.275Z,5.63
2017-11-01T19:10:04.791Z,5.65
2017-11-01T19:12:32.308Z,5.20
2017-11-01T19:14:59.905Z,5.27
2017-11-01T19:17:28.202Z,5.57
2017-11-01T19:19:55.763Z,4.90
2017-11-01T19:22:23.327Z,5.27
2017-11-01T19:24:50.865Z,4.87
2017-11-01T19:27:18.528Z,5.93
2017-11-01T19:29:46.057Z,5.03
2017-11-01T19:32:13.560Z,5.03
2017-11-01T19:34:41.092Z,4.93
2017-11-01T19:37:08.608Z,5.97
2017-11-01T19:39:36.144Z,6.00
2017-11-01T19:42:03.701Z,5.03
2017-11-01T19:44:31.229Z,5.63
2017-11-01T19:46:59.531Z,5.30
2017-11-01T19:49:27.062Z,5.72
2017-11-01T19:51:55.322Z,6.57
2017-11-01T19:54:23.645Z,6.53
2017-11-01T19:56:51.169Z,6.50
2017-11-01T19:59:18.698Z,6.20
2017-11-01T20:01:46.220Z,6.80
2017-11-01T20:04:13.754Z,5.65
2017-11-01T20:06:41.289Z,5.50
2017-11-01T20:09:08.821Z,5.62
2017-11-01T20:11:36.321Z,5.27
2017-11-01T20:14:05.357Z,5.30
2017-11-01T20:16:32.916Z,5.27
2017-11-01T20:19:01.203Z,5.82
2017-11-01T20:21:28.745Z,4.50
2017-11-01T20:23:56.442Z,5.37
2017-11-01T20:26:23.973Z,5.33
2017-11-01T20:28:51.497Z,5.37
2017-11-01T20:31:19.124Z,4.60
2017-11-01T20:33:46.668Z,5.17
2017-11-01T20:36:14.185Z,5.25
2017-11-01T20:38:41.733Z,4.93
2017-11-01T20:41:10.012Z,4.77
2017-11-01T20:43:37.532Z,5.43
2017-11-01T20:46:05.070Z,4.43
2017-11-01T20:48:32.586Z,4.27
2017-11-01T20:51:00.111Z,3.70
2017-11-01T20:53:27.645Z,4.77
2017-11-01T20:55:55.168Z,4.55
2017-11-01T20:58:22.697Z,4.30
2017-11-01T21:00:50.364Z,3.20
2017-11-01T21:03:17.893Z,3.20
2017-11-01T21:05:45.404Z,3.83
2017-11-01T21:08:12.968Z,3.20
2017-11-01T21:10:40.513Z,3.30
2017-11-01T21:13:08.801Z,3.13
2017-11-01T21:15:38.932Z,3.30
2017-11-01T21:18:06.480Z,3.73
2017-11-01T21:20:34.008Z,3.90
2017-11-01T21:23:01.566Z,3.27
2017-11-01T21:25:29.112Z,3.40
2017-11-01T21:27:56.628Z,4.20
2017-11-01T21:30:24.138Z,3.80
2017-11-01T21:32:51.680Z,4.13
2017-11-01T21:35:19.393Z,4.90
2017-11-01T21:37:46.949Z,3.80
2017-11-01T21:40:14.503Z,3.80
2017-11-01T21:42:42.827Z,4.40
2017-11-01T21:45:10.364Z,4.40
2017-11-01T21:47:38.683Z,4.10
2017-11-01T21:50:06.768Z,4.27
2017-11-01T21:52:34.316Z,3.90
2017-11-01T21:55:01.842Z,3.80
2017-11-01T21:57:30.175Z,3.90
2017-11-01T21:59:58.471Z,4.57
2017-11-01T22:02:26.002Z,3.90
2017-11-01T22:04:53.540Z,4.47
2017-11-01T22:07:21.049Z,3.95
2017-11-01T22:09:48.608Z,4.30
2017-11-01T22:12:16.139Z,4.27
2017-11-01T22:14:43.651Z,4.15
2017-11-01T22:17:11.368Z,4.07
2017-11-01T22:19:38.922Z,3.77
2017-11-01T22:22:07.296Z,4.32
2017-11-01T22:24:34.941Z,3.70
2017-11-01T22:27:02.460Z,4.40
2017-11-01T22:29:30.934Z,4.20
2017-11-01T22:31:58.665Z,4.20
2017-11-01T22:34:26.222Z,4.23
2017-11-01T22:36:53.809Z,4.13
2017-11-01T22:39:21.354Z,5.90
2017-11-01T22:41:49.629Z,4.37
2017-11-01T22:44:17.908Z,4.30
2017-11-01T22:46:46.212Z,4.20
2017-11-01T22:49:13.731Z,4.63
2017-11-01T22:51:41.229Z,4.10
2017-11-01T22:54:08.757Z,4.30
2017-11-01T22:56:37.048Z,4.47
2017-11-01T22:59:04.798Z,4.67
2017-11-01T23:01:32.840Z,5.57
2017-11-01T23:04:00.616Z,4.13
2017-11-01T23:06:28.130Z,4.00
2017-11-01T23:08:55.660Z,4.87
2017-11-01T23:11:23.944Z,4.97
2017-11-01T23:13:51.455Z,3.90
2017-11-01T23:16:18.979Z,4.57
2017-11-01T23:18:46.674Z,4.73
2017-11-01T23:21:14.362Z,5.03
2017-11-01T23:23:42.215Z,4.40
2017-11-01T23:26:09.756Z,4.27
2017-11-01T23:28:37.276Z,4.73
2017-11-01T23:31:05.406Z,4.40
2017-11-01T23:33:33.027Z,5.00
2017-11-01T23:36:00.563Z,4.07
2017-11-01T23:38:28.130Z,4.65
2017-11-01T23:40:55.650Z,4.97
2017-11-01T23:43:23.929Z,4.78
2017-11-01T23:45:52.236Z,4.47
2017-11-01T23:48:19.769Z,4.73
2017-11-01T23:50:48.042Z,4.40
2017-11-01T23:53:16.366Z,4.12
2017-11-01T23:55:43.897Z,4.57
2017-11-01T23:58:11.960Z,4.40
